sensor_id;sensor_type;location;lat;lon;timestamp;P1;durP1;ratioP1;P2;durP2;ratioP2
15022;SDS011;19850;49.576;10.880;2023-05-07T00:03:03;1.90;;;1.80;;
15022;SDS011;19850;49.576;10.880;2023-05-07T00:07:10;1.97;;;1.70;;
15022;SDS011;19850;49.576;10.880;2023-05-07T00:11:13;1.90;;;1.77;;
15022;SDS011;19850;49.576;10.880;2023-05-07T00:15:20;2.10;;;2.00;;
15022;SDS011;19850;49.576;10.880;2023-05-07T00:19:23;1.90;;;1.80;;
15022;SDS011;19850;49.576;10.880;2023-05-07T00:23:27;2.07;;;1.97;;
15022;SDS011;19850;49.576;10.880;2023-05-07T00:27:31;2.17;;;2.07;;
15022;SDS011;19850;49.576;10.880;2023-05-07T00:31:33;4.03;;;2.10;;
15022;SDS011;19850;49.576;10.880;2023-05-07T00:35:36;2.40;;;1.97;;
15022;SDS011;19850;49.576;10.880;2023-05-07T00:39:42;2.00;;;1.90;;
15022;SDS011;19850;49.576;10.880;2023-05-07T00:43:46;2.07;;;1.90;;
15022;SDS011;19850;49.576;10.880;2023-05-07T00:47:48;2.10;;;1.87;;
15022;SDS011;19850;49.576;10.880;2023-05-07T00:51:51;2.77;;;2.00;;
15022;SDS011;19850;49.576;10.880;2023-05-07T00:55:55;3.80;;;2.83;;
15022;SDS011;19850;49.576;10.880;2023-05-07T00:59:58;2.17;;;2.00;;
15022;SDS011;19850;49.576;10.880;2023-05-07T01:04:01;2.07;;;1.97;;
15022;SDS011;19850;49.576;10.880;2023-05-07T01:08:04;2.57;;;1.80;;
15022;SDS011;19850;49.576;10.880;2023-05-07T01:12:08;2.43;;;1.90;;
15022;SDS011;19850;49.576;10.880;2023-05-07T01:16:11;2.10;;;1.90;;
15022;SDS011;19850;49.576;10.880;2023-05-07T01:20:14;2.13;;;1.93;;
15022;SDS011;19850;49.576;10.880;2023-05-07T01:24:19;2.97;;;1.90;;
15022;SDS011;19850;49.576;10.880;2023-05-07T01:28:21;3.27;;;2.30;;
15022;SDS011;19850;49.576;10.880;2023-05-07T01:32:29;2.50;;;2.30;;
15022;SDS011;19850;49.576;10.880;2023-05-07T01:36:34;2.43;;;2.27;;
15022;SDS011;19850;49.576;10.880;2023-05-07T01:40:44;2.47;;;2.27;;
15022;SDS011;19850;49.576;10.880;2023-05-07T01:44:47;2.40;;;2.30;;
15022;SDS011;19850;49.576;10.880;2023-05-07T01:48:50;3.57;;;2.40;;
15022;SDS011;19850;49.576;10.880;2023-05-07T01:52:55;2.50;;;2.30;;
15022;SDS011;19850;49.576;10.880;2023-05-07T01:57:00;2.40;;;2.20;;
15022;SDS011;19850;49.576;10.880;2023-05-07T02:01:03;2.40;;;2.20;;
15022;SDS011;19850;49.576;10.880;2023-05-07T02:05:06;3.50;;;2.37;;
15022;SDS011;19850;49.576;10.880;2023-05-07T02:09:09;2.30;;;2.20;;
15022;SDS011;19850;49.576;10.880;2023-05-07T02:13:15;2.60;;;2.50;;
15022;SDS011;19850;49.576;10.880;2023-05-07T02:17:18;3.50;;;2.80;;
15022;SDS011;19850;49.576;10.880;2023-05-07T02:21:21;2.90;;;2.70;;
15022;SDS011;19850;49.576;10.880;2023-05-07T02:25:23;3.30;;;2.43;;
15022;SDS011;19850;49.576;10.880;2023-05-07T02:29:28;2.67;;;2.47;;
15022;SDS011;19850;49.576;10.880;2023-05-07T02:33:33;3.60;;;2.67;;
15022;SDS011;19850;49.576;10.880;2023-05-07T02:37:38;3.20;;;2.90;;
15022;SDS011;19850;49.576;10.880;2023-05-07T02:41:40;2.90;;;2.70;;
15022;SDS011;19850;49.576;10.880;2023-05-07T02:45:44;3.40;;;2.87;;
15022;SDS011;19850;49.576;10.880;2023-05-07T02:49:47;3.70;;;3.40;;
15022;SDS011;19850;49.576;10.880;2023-05-07T02:53:50;3.10;;;2.87;;
15022;SDS011;19850;49.576;10.880;2023-05-07T02:57:52;3.13;;;2.93;;
15022;SDS011;19850;49.576;10.880;2023-05-07T03:01:57;3.20;;;3.00;;
15022;SDS011;19850;49.576;10.880;2023-05-07T03:05:59;3.87;;;3.43;;
15022;SDS011;19850;49.576;10.880;2023-05-07T03:10:02;4.33;;;3.27;;
15022;SDS011;19850;49.576;10.880;2023-05-07T03:14:05;3.43;;;3.20;;
15022;SDS011;19850;49.576;10.880;2023-05-07T03:18:09;3.50;;;3.20;;
15022;SDS011;19850;49.576;10.880;2023-05-07T03:22:12;3.60;;;3.30;;
15022;SDS011;19850;49.576;10.880;2023-05-07T03:26:15;4.20;;;3.53;;
15022;SDS011;19850;49.576;10.880;2023-05-07T03:30:18;3.30;;;3.00;;
15022;SDS011;19850;49.576;10.880;2023-05-07T03:34:23;3.53;;;3.23;;
15022;SDS011;19850;49.576;10.880;2023-05-07T03:38:25;3.40;;;3.10;;
15022;SDS011;19850;49.576;10.880;2023-05-07T03:42:28;4.67;;;3.10;;
15022;SDS011;19850;49.576;10.880;2023-05-07T03:46:31;5.03;;;2.50;;
15022;SDS011;19850;49.576;10.880;2023-05-07T03:50:35;2.83;;;2.60;;
15022;SDS011;19850;49.576;10.880;2023-05-07T03:54:42;3.63;;;2.90;;
15022;SDS011;19850;49.576;10.880;2023-05-07T03:58:44;2.63;;;2.40;;
15022;SDS011;19850;49.576;10.880;2023-05-07T04:02:47;3.07;;;2.60;;
15022;SDS011;19850;49.576;10.880;2023-05-07T04:06:52;3.47;;;2.40;;
15022;SDS011;19850;49.576;10.880;2023-05-07T04:10:55;3.00;;;2.80;;
15022;SDS011;19850;49.576;10.880;2023-05-07T04:14:58;2.27;;;2.17;;
15022;SDS011;19850;49.576;10.880;2023-05-07T04:19:01;3.00;;;2.70;;
15022;SDS011;19850;49.576;10.880;2023-05-07T04:23:05;3.20;;;2.90;;
15022;SDS011;19850;49.576;10.880;2023-05-07T04:27:08;3.83;;;2.80;;
15022;SDS011;19850;49.576;10.880;2023-05-07T04:31:11;3.43;;;3.13;;
15022;SDS011;19850;49.576;10.880;2023-05-07T04:35:14;3.27;;;3.07;;
15022;SDS011;19850;49.576;10.880;2023-05-07T04:39:20;3.60;;;3.30;;
15022;SDS011;19850;49.576;10.880;2023-05-07T04:43:23;3.13;;;2.80;;
15022;SDS011;19850;49.576;10.880;2023-05-07T04:47:26;3.57;;;3.30;;
15022;SDS011;19850;49.576;10.880;2023-05-07T04:51:29;4.70;;;4.20;;
15022;SDS011;19850;49.576;10.880;2023-05-07T04:55:35;6.03;;;4.70;;
15022;SDS011;19850;49.576;10.880;2023-05-07T04:59:37;5.50;;;5.00;;
15022;SDS011;19850;49.576;10.880;2023-05-07T05:03:40;5.30;;;4.80;;
15022;SDS011;19850;49.576;10.880;2023-05-07T05:07:46;4.97;;;4.47;;
15022;SDS011;19850;49.576;10.880;2023-05-07T05:11:50;5.77;;;5.27;;
15022;SDS011;19850;49.576;10.880;2023-05-07T05:15:52;5.63;;;5.13;;
15022;SDS011;19850;49.576;10.880;2023-05-07T05:19:55;6.33;;;5.73;;
15022;SDS011;19850;49.576;10.880;2023-05-07T05:23:58;6.50;;;5.90;;
15022;SDS011;19850;49.576;10.880;2023-05-07T05:28:02;7.17;;;6.33;;
15022;SDS011;19850;49.576;10.880;2023-05-07T05:32:06;6.70;;;6.20;;
15022;SDS011;19850;49.576;10.880;2023-05-07T05:36:09;8.53;;;7.77;;
15022;SDS011;19850;49.576;10.880;2023-05-07T05:40:13;7.07;;;6.47;;
15022;SDS011;19850;49.576;10.880;2023-05-07T05:44:17;6.70;;;6.20;;
15022;SDS011;19850;49.576;10.880;2023-05-07T05:48:19;7.60;;;6.97;;
15022;SDS011;19850;49.576;10.880;2023-05-07T05:52:22;6.87;;;6.30;;
15022;SDS011;19850;49.576;10.880;2023-05-07T05:56:26;7.20;;;6.50;;
15022;SDS011;19850;49.576;10.880;2023-05-07T06:00:30;7.27;;;6.67;;
15022;SDS011;19850;49.576;10.880;2023-05-07T06:04:33;7.30;;;6.50;;
15022;SDS011;19850;49.576;10.880;2023-05-07T06:08:36;6.90;;;6.17;;
15022;SDS011;19850;49.576;10.880;2023-05-07T06:12:39;6.70;;;6.10;;
15022;SDS011;19850;49.576;10.880;2023-05-07T06:16:43;6.90;;;6.37;;
15022;SDS011;19850;49.576;10.880;2023-05-07T06:20:46;7.33;;;6.63;;
15022;SDS011;19850;49.576;10.880;2023-05-07T06:24:49;7.80;;;6.80;;
15022;SDS011;19850;49.576;10.880;2023-05-07T06:28:52;7.10;;;6.50;;
15022;SDS011;19850;49.576;10.880;2023-05-07T06:32:56;7.23;;;6.67;;
15022;SDS011;19850;49.576;10.880;2023-05-07T06:37:00;6.70;;;6.20;;
15022;SDS011;19850;49.576;10.880;2023-05-07T06:41:02;6.70;;;6.10;;
15022;SDS011;19850;49.576;10.880;2023-05-07T06:45:06;7.83;;;7.00;;
15022;SDS011;19850;49.576;10.880;2023-05-07T06:49:11;7.50;;;6.80;;
15022;SDS011;19850;49.576;10.880;2023-05-07T06:53:14;8.17;;;7.47;;
15022;SDS011;19850;49.576;10.880;2023-05-07T06:57:17;8.07;;;7.30;;
15022;SDS011;19850;49.576;10.880;2023-05-07T07:01:20;7.10;;;6.50;;
15022;SDS011;19850;49.576;10.880;2023-05-07T07:05:24;7.93;;;7.23;;
15022;SDS011;19850;49.576;10.880;2023-05-07T07:09:27;7.03;;;6.33;;
15022;SDS011;19850;49.576;10.880;2023-05-07T07:13:30;7.60;;;7.00;;
15022;SDS011;19850;49.576;10.880;2023-05-07T07:17:33;6.80;;;6.20;;
15022;SDS011;19850;49.576;10.880;2023-05-07T07:21:38;7.37;;;6.67;;
15022;SDS011;19850;49.576;10.880;2023-05-07T07:25:41;7.00;;;6.40;;
15022;SDS011;19850;49.576;10.880;2023-05-07T07:29:43;7.80;;;6.70;;
15022;SDS011;19850;49.576;10.880;2023-05-07T07:33:46;7.80;;;6.97;;
15022;SDS011;19850;49.576;10.880;2023-05-07T07:37:54;9.70;;;7.37;;
15022;SDS011;19850;49.576;10.880;2023-05-07T07:41:57;6.80;;;6.13;;
15022;SDS011;19850;49.576;10.880;2023-05-07T07:46:00;7.53;;;6.83;;
15022;SDS011;19850;49.576;10.880;2023-05-07T07:50:03;6.30;;;5.70;;
15022;SDS011;19850;49.576;10.880;2023-05-07T07:54:08;6.97;;;6.37;;
15022;SDS011;19850;49.576;10.880;2023-05-07T07:58:11;6.70;;;6.00;;
15022;SDS011;19850;49.576;10.880;2023-05-07T08:02:13;7.33;;;6.73;;
15022;SDS011;19850;49.576;10.880;2023-05-07T08:06:16;6.63;;;6.10;;
15022;SDS011;19850;49.576;10.880;2023-05-07T08:10:21;6.50;;;6.00;;
15022;SDS011;19850;49.576;10.880;2023-05-07T08:14:27;5.77;;;5.37;;
15022;SDS011;19850;49.576;10.880;2023-05-07T08:18:30;5.83;;;5.40;;
15022;SDS011;19850;49.576;10.880;2023-05-07T08:22:36;7.13;;;6.53;;
15022;SDS011;19850;49.576;10.880;2023-05-07T08:26:40;5.70;;;5.20;;
15022;SDS011;19850;49.576;10.880;2023-05-07T08:30:47;5.57;;;5.17;;
15022;SDS011;19850;49.576;10.880;2023-05-07T08:34:50;5.80;;;5.23;;
15022;SDS011;19850;49.576;10.880;2023-05-07T08:38:53;6.40;;;5.90;;
15022;SDS011;19850;49.576;10.880;2023-05-07T08:42:57;5.63;;;5.20;;
15022;SDS011;19850;49.576;10.880;2023-05-07T08:47:00;6.13;;;5.53;;
15022;SDS011;19850;49.576;10.880;2023-05-07T08:51:04;5.90;;;5.40;;
15022;SDS011;19850;49.576;10.880;2023-05-07T08:55:08;5.50;;;5.00;;
15022;SDS011;19850;49.576;10.880;2023-05-07T08:59:13;5.80;;;5.30;;
15022;SDS011;19850;49.576;10.880;2023-05-07T09:03:16;5.60;;;5.20;;
15022;SDS011;19850;49.576;10.880;2023-05-07T09:07:19;5.00;;;4.60;;
15022;SDS011;19850;49.576;10.880;2023-05-07T09:11:22;5.23;;;4.83;;
15022;SDS011;19850;49.576;10.880;2023-05-07T09:15:27;5.33;;;5.00;;
15022;SDS011;19850;49.576;10.880;2023-05-07T09:19:30;4.93;;;4.57;;
15022;SDS011;19850;49.576;10.880;2023-05-07T09:23:33;5.20;;;4.80;;
15022;SDS011;19850;49.576;10.880;2023-05-07T09:27:36;5.47;;;4.57;;
15022;SDS011;19850;49.576;10.880;2023-05-07T09:31:40;4.97;;;4.57;;
15022;SDS011;19850;49.576;10.880;2023-05-07T09:35:43;6.67;;;4.93;;
15022;SDS011;19850;49.576;10.880;2023-05-07T09:39:47;4.40;;;4.10;;
15022;SDS011;19850;49.576;10.880;2023-05-07T09:43:53;5.00;;;4.37;;
15022;SDS011;19850;49.576;10.880;2023-05-07T09:47:58;3.80;;;3.50;;
15022;SDS011;19850;49.576;10.880;2023-05-07T09:52:02;4.53;;;4.13;;
15022;SDS011;19850;49.576;10.880;2023-05-07T09:56:08;4.20;;;3.80;;
15022;SDS011;19850;49.576;10.880;2023-05-07T10:00:11;3.70;;;3.43;;
15022;SDS011;19850;49.576;10.880;2023-05-07T10:04:20;3.23;;;3.00;;
15022;SDS011;19850;49.576;10.880;2023-05-07T10:08:23;3.67;;;3.37;;
15022;SDS011;19850;49.576;10.880;2023-05-07T10:12:26;3.50;;;3.20;;
15022;SDS011;19850;49.576;10.880;2023-05-07T10:16:30;5.90;;;5.13;;
15022;SDS011;19850;49.576;10.880;2023-05-07T10:20:35;3.43;;;3.20;;
15022;SDS011;19850;49.576;10.880;2023-05-07T10:24:39;3.40;;;3.10;;
15022;SDS011;19850;49.576;10.880;2023-05-07T10:28:43;3.17;;;2.97;;
15022;SDS011;19850;49.576;10.880;2023-05-07T10:32:49;4.13;;;3.43;;
15022;SDS011;19850;49.576;10.880;2023-05-07T10:36:54;4.40;;;4.03;;
15022;SDS011;19850;49.576;10.880;2023-05-07T10:40:58;3.47;;;3.10;;
15022;SDS011;19850;49.576;10.880;2023-05-07T10:45:11;3.80;;;3.50;;
15022;SDS011;19850;49.576;10.880;2023-05-07T10:49:15;3.43;;;3.13;;
15022;SDS011;19850;49.576;10.880;2023-05-07T10:53:23;3.90;;;3.60;;
15022;SDS011;19850;49.576;10.880;2023-05-07T10:57:33;4.23;;;3.50;;
15022;SDS011;19850;49.576;10.880;2023-05-07T11:01:50;3.67;;;3.37;;
15022;SDS011;19850;49.576;10.880;2023-05-07T11:06:09;3.70;;;3.40;;
15022;SDS011;19850;49.576;10.880;2023-05-07T11:13:49;3.93;;;3.63;;
15022;SDS011;19850;49.576;10.880;2023-05-07T11:17:52;4.00;;;3.47;;
15022;SDS011;19850;49.576;10.880;2023-05-07T11:25:59;4.20;;;3.80;;
15022;SDS011;19850;49.576;10.880;2023-05-07T11:30:02;4.13;;;3.77;;
15022;SDS011;19850;49.576;10.880;2023-05-07T11:34:09;4.17;;;3.57;;
15022;SDS011;19850;49.576;10.880;2023-05-07T11:38:13;3.23;;;3.00;;
15022;SDS011;19850;49.576;10.880;2023-05-07T11:42:27;3.77;;;3.57;;
15022;SDS011;19850;49.576;10.880;2023-05-07T11:46:30;8.00;;;7.20;;
15022;SDS011;19850;49.576;10.880;2023-05-07T11:50:33;5.20;;;4.80;;
15022;SDS011;19850;49.576;10.880;2023-05-07T11:54:36;5.40;;;4.90;;
15022;SDS011;19850;49.576;10.880;2023-05-07T11:58:41;4.13;;;3.83;;
15022;SDS011;19850;49.576;10.880;2023-05-07T12:02:47;3.37;;;3.17;;
15022;SDS011;19850;49.576;10.880;2023-05-07T12:06:53;5.53;;;4.70;;
15022;SDS011;19850;49.576;10.880;2023-05-07T12:10:57;3.87;;;3.20;;
15022;SDS011;19850;49.576;10.880;2023-05-07T12:15:01;5.67;;;5.17;;
15022;SDS011;19850;49.576;10.880;2023-05-07T12:19:04;6.10;;;5.50;;
15022;SDS011;19850;49.576;10.880;2023-05-07T12:23:07;3.27;;;3.07;;
15022;SDS011;19850;49.576;10.880;2023-05-07T12:27:11;5.20;;;4.73;;
15022;SDS011;19850;49.576;10.880;2023-05-07T12:31:15;4.20;;;3.90;;
15022;SDS011;19850;49.576;10.880;2023-05-07T12:35:25;3.17;;;2.97;;
15022;SDS011;19850;49.576;10.880;2023-05-07T12:39:28;3.67;;;3.38;;
15022;SDS011;19850;49.576;10.880;2023-05-07T12:43:31;3.20;;;3.00;;
15022;SDS011;19850;49.576;10.880;2023-05-07T12:47:35;2.95;;;2.70;;
15022;SDS011;19850;49.576;10.880;2023-05-07T12:51:39;3.40;;;3.10;;
15022;SDS011;19850;49.576;10.880;2023-05-07T12:55:43;3.60;;;3.30;;
15022;SDS011;19850;49.576;10.880;2023-05-07T12:59:46;3.92;;;3.35;;
15022;SDS011;19850;49.576;10.880;2023-05-07T13:03:51;3.40;;;3.20;;
15022;SDS011;19850;49.576;10.880;2023-05-07T13:07:54;2.90;;;2.70;;
15022;SDS011;19850;49.576;10.880;2023-05-07T13:11:57;3.22;;;3.03;;
15022;SDS011;19850;49.576;10.880;2023-05-07T13:16:01;3.25;;;2.95;;
15022;SDS011;19850;49.576;10.880;2023-05-07T13:20:06;3.10;;;2.90;;
15022;SDS011;19850;49.576;10.880;2023-05-07T13:24:11;3.05;;;2.78;;
15022;SDS011;19850;49.576;10.880;2023-05-07T13:28:14;3.00;;;2.80;;
15022;SDS011;19850;49.576;10.880;2023-05-07T13:32:17;2.75;;;2.55;;
15022;SDS011;19850;49.576;10.880;2023-05-07T13:36:21;3.10;;;2.90;;
15022;SDS011;19850;49.576;10.880;2023-05-07T13:40:24;3.33;;;3.03;;
15022;SDS011;19850;49.576;10.880;2023-05-07T13:44:27;3.30;;;3.10;;
15022;SDS011;19850;49.576;10.880;2023-05-07T13:48:30;4.22;;;2.55;;
15022;SDS011;19850;49.576;10.880;2023-05-07T13:52:34;3.03;;;2.83;;
15022;SDS011;19850;49.576;10.880;2023-05-07T13:56:37;3.17;;;2.88;;
15022;SDS011;19850;49.576;10.880;2023-05-07T14:00:40;3.83;;;2.67;;
15022;SDS011;19850;49.576;10.880;2023-05-07T14:04:42;3.25;;;3.05;;
15022;SDS011;19850;49.576;10.880;2023-05-07T14:08:49;2.90;;;2.70;;
15022;SDS011;19850;49.576;10.880;2023-05-07T14:12:52;3.10;;;2.90;;
15022;SDS011;19850;49.576;10.880;2023-05-07T14:16:56;2.92;;;2.70;;
15022;SDS011;19850;49.576;10.880;2023-05-07T14:20:59;3.10;;;2.87;;
15022;SDS011;19850;49.576;10.880;2023-05-07T14:25:05;3.23;;;3.03;;
15022;SDS011;19850;49.576;10.880;2023-05-07T14:29:11;3.30;;;3.10;;
15022;SDS011;19850;49.576;10.880;2023-05-07T14:33:14;3.20;;;3.00;;
15022;SDS011;19850;49.576;10.880;2023-05-07T14:37:19;3.07;;;2.80;;
15022;SDS011;19850;49.576;10.880;2023-05-07T14:41:23;3.27;;;3.00;;
15022;SDS011;19850;49.576;10.880;2023-05-07T14:45:26;3.10;;;2.90;;
15022;SDS011;19850;49.576;10.880;2023-05-07T14:49:29;3.33;;;3.03;;
15022;SDS011;19850;49.576;10.880;2023-05-07T14:53:32;3.03;;;2.83;;
15022;SDS011;19850;49.576;10.880;2023-05-07T14:57:36;3.43;;;3.13;;
15022;SDS011;19850;49.576;10.880;2023-05-07T15:01:40;3.20;;;2.90;;
15022;SDS011;19850;49.576;10.880;2023-05-07T15:05:47;3.60;;;3.10;;
15022;SDS011;19850;49.576;10.880;2023-05-07T15:09:52;2.93;;;2.73;;
15022;SDS011;19850;49.576;10.880;2023-05-07T15:13:56;3.00;;;2.60;;
15022;SDS011;19850;49.576;10.880;2023-05-07T15:18:01;2.80;;;2.60;;
15022;SDS011;19850;49.576;10.880;2023-05-07T15:22:04;4.73;;;4.33;;
15022;SDS011;19850;49.576;10.880;2023-05-07T15:26:07;2.43;;;2.27;;
15022;SDS011;19850;49.576;10.880;2023-05-07T15:30:12;4.13;;;3.53;;
15022;SDS011;19850;49.576;10.880;2023-05-07T15:34:16;3.03;;;2.83;;
15022;SDS011;19850;49.576;10.880;2023-05-07T15:38:19;3.20;;;3.00;;
15022;SDS011;19850;49.576;10.880;2023-05-07T15:42:24;2.83;;;2.63;;
15022;SDS011;19850;49.576;10.880;2023-05-07T15:46:31;3.20;;;3.00;;
15022;SDS011;19850;49.576;10.880;2023-05-07T15:50:34;3.40;;;3.10;;
15022;SDS011;19850;49.576;10.880;2023-05-07T15:54:37;2.90;;;2.70;;
15022;SDS011;19850;49.576;10.880;2023-05-07T15:58:41;4.90;;;4.40;;
15022;SDS011;19850;49.576;10.880;2023-05-07T16:02:49;3.47;;;3.17;;
15022;SDS011;19850;49.576;10.880;2023-05-07T16:06:52;3.43;;;3.20;;
15022;SDS011;19850;49.576;10.880;2023-05-07T16:10:56;3.60;;;3.30;;
15022;SDS011;19850;49.576;10.880;2023-05-07T16:14:58;2.80;;;2.60;;
15022;SDS011;19850;49.576;10.880;2023-05-07T16:19:04;3.67;;;2.47;;
15022;SDS011;19850;49.576;10.880;2023-05-07T16:23:13;15.30;;;3.70;;
15022;SDS011;19850;49.576;10.880;2023-05-07T16:27:15;2.70;;;2.50;;
15022;SDS011;19850;49.576;10.880;2023-05-07T16:31:19;2.30;;;2.20;;
15022;SDS011;19850;49.576;10.880;2023-05-07T16:35:24;2.90;;;2.70;;
15022;SDS011;19850;49.576;10.880;2023-05-07T16:39:27;2.50;;;2.40;;
15022;SDS011;19850;49.576;10.880;2023-05-07T16:43:31;5.63;;;5.23;;
15022;SDS011;19850;49.576;10.880;2023-05-07T16:47:33;3.50;;;3.27;;
15022;SDS011;19850;49.576;10.880;2023-05-07T16:51:38;4.70;;;2.93;;
15022;SDS011;19850;49.576;10.880;2023-05-07T16:55:43;5.13;;;4.83;;
15022;SDS011;19850;49.576;10.880;2023-05-07T16:59:46;3.57;;;3.20;;
15022;SDS011;19850;49.576;10.880;2023-05-07T17:03:49;3.63;;;3.33;;
15022;SDS011;19850;49.576;10.880;2023-05-07T17:07:56;3.03;;;2.77;;
15022;SDS011;19850;49.576;10.880;2023-05-07T17:11:59;3.80;;;3.17;;
15022;SDS011;19850;49.576;10.880;2023-05-07T17:16:03;3.80;;;3.50;;
15022;SDS011;19850;49.576;10.880;2023-05-07T17:20:07;4.40;;;4.00;;
15022;SDS011;19850;49.576;10.880;2023-05-07T17:24:11;4.37;;;3.97;;
15022;SDS011;19850;49.576;10.880;2023-05-07T17:28:14;5.10;;;4.70;;
15022;SDS011;19850;49.576;10.880;2023-05-07T17:32:17;4.93;;;4.43;;
15022;SDS011;19850;49.576;10.880;2023-05-07T17:36:20;4.97;;;4.57;;
15022;SDS011;19850;49.576;10.880;2023-05-07T17:40:24;5.03;;;4.70;;
15022;SDS011;19850;49.576;10.880;2023-05-07T17:44:29;4.70;;;4.30;;
15022;SDS011;19850;49.576;10.880;2023-05-07T17:48:33;5.00;;;4.50;;
15022;SDS011;19850;49.576;10.880;2023-05-07T17:52:39;4.93;;;4.37;;
15022;SDS011;19850;49.576;10.880;2023-05-07T17:56:43;4.77;;;4.47;;
15022;SDS011;19850;49.576;10.880;2023-05-07T18:00:46;4.57;;;3.93;;
15022;SDS011;19850;49.576;10.880;2023-05-07T18:04:49;5.00;;;4.50;;
15022;SDS011;19850;49.576;10.880;2023-05-07T18:08:52;4.57;;;4.17;;
15022;SDS011;19850;49.576;10.880;2023-05-07T18:12:58;4.70;;;4.30;;
15022;SDS011;19850;49.576;10.880;2023-05-07T18:17:01;4.20;;;3.90;;
15022;SDS011;19850;49.576;10.880;2023-05-07T18:21:04;5.50;;;5.03;;
15022;SDS011;19850;49.576;10.880;2023-05-07T18:25:07;4.70;;;4.30;;
15022;SDS011;19850;49.576;10.880;2023-05-07T18:29:13;4.03;;;3.83;;
15022;SDS011;19850;49.576;10.880;2023-05-07T18:33:17;4.30;;;4.00;;
15022;SDS011;19850;49.576;10.880;2023-05-07T18:37:20;4.70;;;4.40;;
15022;SDS011;19850;49.576;10.880;2023-05-07T18:41:26;7.93;;;4.80;;
15022;SDS011;19850;49.576;10.880;2023-05-07T18:45:30;4.37;;;4.00;;
15022;SDS011;19850;49.576;10.880;2023-05-07T18:49:34;4.40;;;4.00;;
15022;SDS011;19850;49.576;10.880;2023-05-07T18:53:37;4.40;;;4.10;;
15022;SDS011;19850;49.576;10.880;2023-05-07T18:57:40;4.30;;;4.00;;
15022;SDS011;19850;49.576;10.880;2023-05-07T19:01:46;3.50;;;3.30;;
15022;SDS011;19850;49.576;10.880;2023-05-07T19:05:49;4.47;;;3.50;;
15022;SDS011;19850;49.576;10.880;2023-05-07T19:09:52;3.43;;;3.13;;
15022;SDS011;19850;49.576;10.880;2023-05-07T19:14:07;3.50;;;3.30;;
15022;SDS011;19850;49.576;10.880;2023-05-07T19:18:12;3.20;;;2.90;;
15022;SDS011;19850;49.576;10.880;2023-05-07T19:22:18;3.80;;;3.50;;
15022;SDS011;19850;49.576;10.880;2023-05-07T19:26:21;3.43;;;3.13;;
15022;SDS011;19850;49.576;10.880;2023-05-07T19:30:24;2.90;;;2.70;;
15022;SDS011;19850;49.576;10.880;2023-05-07T19:34:28;2.87;;;2.57;;
15022;SDS011;19850;49.576;10.880;2023-05-07T19:38:31;2.90;;;2.70;;
15022;SDS011;19850;49.576;10.880;2023-05-07T19:42:34;2.93;;;2.67;;
15022;SDS011;19850;49.576;10.880;2023-05-07T19:46:37;3.57;;;2.97;;
15022;SDS011;19850;49.576;10.880;2023-05-07T19:50:47;3.07;;;2.87;;
15022;SDS011;19850;49.576;10.880;2023-05-07T19:54:50;3.20;;;3.00;;
15022;SDS011;19850;49.576;10.880;2023-05-07T19:58:53;3.20;;;3.00;;
15022;SDS011;19850;49.576;10.880;2023-05-07T20:02:55;2.70;;;2.50;;
15022;SDS011;19850;49.576;10.880;2023-05-07T20:07:00;3.13;;;2.60;;
15022;SDS011;19850;49.576;10.880;2023-05-07T20:11:03;3.77;;;3.43;;
15022;SDS011;19850;49.576;10.880;2023-05-07T20:15:06;3.27;;;2.90;;
15022;SDS011;19850;49.576;10.880;2023-05-07T20:19:10;3.37;;;3.17;;
15022;SDS011;19850;49.576;10.880;2023-05-07T20:23:17;2.90;;;2.70;;
15022;SDS011;19850;49.576;10.880;2023-05-07T20:27:20;3.07;;;2.87;;
15022;SDS011;19850;49.576;10.880;2023-05-07T20:31:25;3.17;;;2.97;;
15022;SDS011;19850;49.576;10.880;2023-05-07T20:35:28;3.37;;;3.17;;
15022;SDS011;19850;49.576;10.880;2023-05-07T20:39:32;3.00;;;2.80;;
15022;SDS011;19850;49.576;10.880;2023-05-07T20:43:35;2.90;;;2.70;;
15022;SDS011;19850;49.576;10.880;2023-05-07T20:47:38;3.40;;;3.10;;
15022;SDS011;19850;49.576;10.880;2023-05-07T20:51:42;3.30;;;3.10;;
15022;SDS011;19850;49.576;10.880;2023-05-07T20:55:46;3.20;;;3.00;;
15022;SDS011;19850;49.576;10.880;2023-05-07T20:59:49;4.03;;;3.73;;
15022;SDS011;19850;49.576;10.880;2023-05-07T21:03:52;3.70;;;3.40;;
15022;SDS011;19850;49.576;10.880;2023-05-07T21:07:54;4.00;;;3.70;;
15022;SDS011;19850;49.576;10.880;2023-05-07T21:11:59;4.00;;;3.70;;
15022;SDS011;19850;49.576;10.880;2023-05-07T21:16:01;4.10;;;3.80;;
15022;SDS011;19850;49.576;10.880;2023-05-07T21:20:05;3.93;;;3.67;;
15022;SDS011;19850;49.576;10.880;2023-05-07T21:24:12;4.20;;;3.80;;
15022;SDS011;19850;49.576;10.880;2023-05-07T21:28:16;4.13;;;3.80;;
15022;SDS011;19850;49.576;10.880;2023-05-07T21:32:19;3.93;;;3.63;;
15022;SDS011;19850;49.576;10.880;2023-05-07T21:36:22;3.90;;;3.60;;
15022;SDS011;19850;49.576;10.880;2023-05-07T21:40:25;4.13;;;3.83;;
15022;SDS011;19850;49.576;10.880;2023-05-07T21:44:32;3.63;;;3.33;;
15022;SDS011;19850;49.576;10.880;2023-05-07T21:48:34;4.03;;;3.63;;
15022;SDS011;19850;49.576;10.880;2023-05-07T21:52:37;3.50;;;3.20;;
15022;SDS011;19850;49.576;10.880;2023-05-07T21:56:42;3.50;;;3.30;;
15022;SDS011;19850;49.576;10.880;2023-05-07T22:00:47;3.97;;;3.70;;
15022;SDS011;19850;49.576;10.880;2023-05-07T22:04:49;3.37;;;3.17;;
15022;SDS011;19850;49.576;10.880;2023-05-07T22:08:52;4.10;;;3.80;;
15022;SDS011;19850;49.576;10.880;2023-05-07T22:12:55;4.00;;;3.70;;
15022;SDS011;19850;49.576;10.880;2023-05-07T22:17:01;4.67;;;4.20;;
15022;SDS011;19850;49.576;10.880;2023-05-07T22:21:06;4.63;;;3.60;;
15022;SDS011;19850;49.576;10.880;2023-05-07T22:25:09;3.87;;;3.63;;
15022;SDS011;19850;49.576;10.880;2023-05-07T22:29:11;4.30;;;4.00;;
15022;SDS011;19850;49.576;10.880;2023-05-07T22:33:16;3.50;;;3.30;;
15022;SDS011;19850;49.576;10.880;2023-05-07T22:37:18;4.87;;;3.90;;
15022;SDS011;19850;49.576;10.880;2023-05-07T22:41:21;5.27;;;4.43;;
15022;SDS011;19850;49.576;10.880;2023-05-07T22:45:24;4.30;;;3.90;;
15022;SDS011;19850;49.576;10.880;2023-05-07T22:49:28;4.00;;;3.73;;
15022;SDS011;19850;49.576;10.880;2023-05-07T22:53:31;4.30;;;3.90;;
15022;SDS011;19850;49.576;10.880;2023-05-07T22:57:34;4.20;;;3.80;;
15022;SDS011;19850;49.576;10.880;2023-05-07T23:01:37;4.13;;;3.83;;
15022;SDS011;19850;49.576;10.880;2023-05-07T23:05:42;4.23;;;3.83;;
15022;SDS011;19850;49.576;10.880;2023-05-07T23:09:44;4.10;;;3.80;;
15022;SDS011;19850;49.576;10.880;2023-05-07T23:13:47;4.20;;;3.90;;
15022;SDS011;19850;49.576;10.880;2023-05-07T23:17:50;3.63;;;3.40;;
15022;SDS011;19850;49.576;10.880;2023-05-07T23:21:57;4.27;;;3.80;;
15022;SDS011;19850;49.576;10.880;2023-05-07T23:26:02;4.23;;;3.93;;
15022;SDS011;19850;49.576;10.880;2023-05-07T23:30:05;4.70;;;4.27;;
15022;SDS011;19850;49.576;10.880;2023-05-07T23:34:09;5.07;;;4.53;;
15022;SDS011;19850;49.576;10.880;2023-05-07T23:38:14;4.20;;;3.90;;
15022;SDS011;19850;49.576;10.880;2023-05-07T23:42:17;4.10;;;3.80;;
15022;SDS011;19850;49.576;10.880;2023-05-07T23:46:20;3.63;;;3.43;;
15022;SDS011;19850;49.576;10.880;2023-05-07T23:50:23;4.30;;;3.90;;
15022;SDS011;19850;49.576;10.880;2023-05-07T23:54:27;4.70;;;4.20;;
15022;SDS011;19850;49.576;10.880;2023-05-07T23:58:30;4.50;;;4.20;;
